Time,TemperatureF,DewpointF,PressureIn,WindDirection,WindDirectionDegrees,WindSpeedMPH,WindSpeedGustMPH,Humidity,HourlyPrecipIn,Conditions,Clouds,dailyrainin,SoftwareType,DateUTC
2013-09-04 00:06:00,72.8,50.0,29.84,ESE,111,3.0,6.0,45,0.00,,,0.00,weatherlink.com 1.10,2013-09-04 05:06:00,
2013-09-04 00:21:00,72.8,50.0,29.84,ESE,107,3.0,6.0,45,0.00,,,0.00,weatherlink.com 1.10,2013-09-04 05:21:00,
2013-09-04 00:36:00,72.1,51.0,29.84,ESE,116,3.0,5.0,47,0.00,,,0.00,weatherlink.com 1.10,2013-09-04 05:36:00,
2013-09-04 00:51:00,72.2,51.0,29.85,ESE,113,2.0,5.0,47,0.00,,,0.00,weatherlink.com 1.10,2013-09-04 05:51:00,
2013-09-04 01:06:00,72.2,51.0,29.85,ESE,113,1.0,2.0,48,0.00,,,0.00,weatherlink.com 1.10,2013-09-04 06:06:00,
2013-09-04 01:21:00,72.6,51.0,29.85,ESE,114,0.0,3.0,47,0.00,,,0.00,weatherlink.com 1.10,2013-09-04 06:21:00,
2013-09-04 01:36:00,71.5,51.0,29.85,ESE,114,0.0,1.0,49,0.00,,,0.00,weatherlink.com 1.10,2013-09-04 06:36:00,
2013-09-04 01:51:00,71.3,51.0,29.86,ESE,114,0.0,1.0,49,0.00,,,0.00,weatherlink.com 1.10,2013-09-04 06:51:00,
2013-09-04 02:06:00,70.5,51.0,29.86,ESE,113,0.0,1.0,51,0.00,,,0.00,weatherlink.com 1.10,2013-09-04 07:06:00,
2013-09-04 02:21:00,69.5,51.0,29.87,ESE,121,1.0,2.0,52,0.00,,,0.00,weatherlink.com 1.10,2013-09-04 07:21:00,
2013-09-04 02:36:00,71.6,51.0,29.87,ESE,117,0.0,0.0,49,0.00,,,0.00,weatherlink.com 1.10,2013-09-04 07:36:00,
2013-09-04 02:51:00,70.1,51.0,29.88,ESE,119,0.0,0.0,51,0.00,,,0.00,weatherlink.com 1.10,2013-09-04 07:51:00,
2013-09-04 03:06:00,70.6,52.0,29.88,ESE,118,0.0,1.0,52,0.00,,,0.00,weatherlink.com 1.10,2013-09-04 08:06:00,
2013-09-04 03:21:00,70.8,52.0,29.88,ESE,117,0.0,2.0,51,0.00,,,0.00,weatherlink.com 1.10,2013-09-04 08:21:00,
2013-09-04 03:36:00,67.7,51.0,29.88,ESE,119,0.0,1.0,56,0.00,,,0.00,weatherlink.com 1.10,2013-09-04 08:36:00,
2013-09-04 03:51:00,67.4,51.0,29.88,ESE,118,0.0,0.0,57,0.00,,,0.00,weatherlink.com 1.10,2013-09-04 08:51:00,
2013-09-04 04:06:00,68.5,51.0,29.88,ESE,118,0.0,0.0,54,0.00,,,0.00,weatherlink.com 1.10,2013-09-04 09:06:00,
2013-09-04 04:21:00,69.8,51.0,29.87,ESE,118,1.0,1.0,51,0.00,,,0.00,weatherlink.com 1.10,2013-09-04 09:21:00,
2013-09-04 04:36:00,66.8,52.0,29.87,SSW,194,0.0,1.0,59,0.00,,,0.00,weatherlink.com 1.10,2013-09-04 09:36:00,
2013-09-04 04:51:00,67.2,51.0,29.87,SSW,194,0.0,0.0,57,0.00,,,0.00,weatherlink.com 1.10,2013-09-04 09:51:00,
2013-09-04 05:06:00,66.7,51.0,29.87,SSW,194,0.0,0.0,58,0.00,,,0.00,weatherlink.com 1.10,2013-09-04 10:06:00,
2013-09-04 05:21:00,66.5,51.0,29.86,SSW,194,0.0,2.0,58,0.00,,,0.00,weatherlink.com 1.10,2013-09-04 10:21:00,
2013-09-04 05:36:00,65.5,52.0,29.86,SSW,194,0.0,1.0,61,0.00,,,0.00,weatherlink.com 1.10,2013-09-04 10:36:00,
2013-09-04 05:51:00,68.4,51.0,29.86,East,101,0.0,2.0,55,0.00,,,0.00,weatherlink.com 1.10,2013-09-04 10:51:00,
2013-09-04 06:06:00,63.8,51.0,29.86,East,101,0.0,0.0,64,0.00,,,0.00,weatherlink.com 1.10,2013-09-04 11:06:00,
2013-09-04 06:21:00,65.1,52.0,29.87,East,101,0.0,0.0,62,0.00,,,0.00,weatherlink.com 1.10,2013-09-04 11:21:00,
2013-09-04 06:36:00,67.1,52.0,29.87,ENE,78,0.0,2.0,58,0.00,,,0.00,weatherlink.com 1.10,2013-09-04 11:36:00,
2013-09-04 06:51:00,65.1,51.0,29.87,East,79,0.0,0.0,60,0.00,,,0.00,weatherlink.com 1.10,2013-09-04 11:51:00,
2013-09-04 07:06:00,65.0,52.0,29.88,East,79,0.0,1.0,62,0.00,,,0.00,weatherlink.com 1.10,2013-09-04 12:06:00,
2013-09-04 07:21:00,66.8,51.0,29.88,ENE,78,0.0,1.0,58,0.00,,,0.00,weatherlink.com 1.10,2013-09-04 12:21:00,
2013-09-04 07:36:00,63.1,50.0,29.89,East,80,0.0,1.0,63,0.00,,,0.00,weatherlink.com 1.10,2013-09-04 12:36:00,
2013-09-04 07:51:00,62.7,52.0,29.88,East,80,0.0,0.0,67,0.00,,,0.00,weatherlink.com 1.10,2013-09-04 12:51:00,
2013-09-04 08:06:00,65.7,51.0,29.89,East,80,0.0,1.0,59,0.00,,,0.00,weatherlink.com 1.10,2013-09-04 13:06:00,
2013-09-04 08:21:00,65.2,52.0,29.89,East,80,0.0,0.0,62,0.00,,,0.00,weatherlink.com 1.10,2013-09-04 13:21:00,
2013-09-04 08:36:00,65.2,52.0,29.89,East,80,0.0,2.0,62,0.00,,,0.00,weatherlink.com 1.10,2013-09-04 13:36:00,
2013-09-04 08:51:00,66.6,53.0,29.90,East,80,0.0,1.0,63,0.00,,,0.00,weatherlink.com 1.10,2013-09-04 13:51:00,
2013-09-04 09:07:00,69.1,53.0,29.90,East,86,0.0,1.0,57,0.00,,,0.00,weatherlink.com 1.10,2013-09-04 14:07:00,
2013-09-04 09:22:00,70.9,53.0,29.90,East,86,0.0,0.0,53,0.00,,,0.00,weatherlink.com 1.10,2013-09-04 14:22:00,
2013-09-04 09:52:00,76.4,53.0,29.90,NE,42,0.0,3.0,45,0.00,,,0.00,weatherlink.com 1.10,2013-09-04 14:52:00,
2013-09-04 10:07:00,77.5,53.0,29.91,NW,319,0.0,2.0,43,0.00,,,0.00,weatherlink.com 1.10,2013-09-04 15:07:00,
2013-09-04 10:22:00,79.3,53.0,29.91,ESE,103,2.0,3.0,40,0.00,,,0.00,weatherlink.com 1.10,2013-09-04 15:22:00,
2013-09-04 10:37:00,80.6,52.0,29.91,East,90,11.0,18.0,37,0.00,,,0.00,weatherlink.com 1.10,2013-09-04 15:37:00,
2013-09-04 10:52:00,81.1,53.0,29.91,ESE,116,13.0,14.0,38,0.00,,,0.00,weatherlink.com 1.10,2013-09-04 15:52:00,
2013-09-04 11:07:00,81.4,53.0,29.92,ESE,115,9.0,15.0,37,0.00,,,0.00,weatherlink.com 1.10,2013-09-04 16:07:00,
2013-09-04 11:22:00,81.6,51.0,29.91,ESE,118,7.0,18.0,34,0.00,,,0.00,weatherlink.com 1.10,2013-09-04 16:22:00,
2013-09-04 11:37:00,82.6,51.0,29.91,ESE,104,9.0,23.0,34,0.00,,,0.00,weatherlink.com 1.10,2013-09-04 16:37:00,
2013-09-04 11:52:00,82.9,49.0,29.91,ESE,117,4.0,21.0,31,0.00,,,0.00,weatherlink.com 1.10,2013-09-04 16:52:00,
2013-09-04 12:07:00,83.6,51.0,29.91,SE,136,7.0,19.0,32,0.00,,,0.00,weatherlink.com 1.10,2013-09-04 17:07:00,
2013-09-04 12:22:00,84.1,51.0,29.91,ESE,120,5.0,18.0,32,0.00,,,0.00,weatherlink.com 1.10,2013-09-04 17:22:00,
2013-09-04 12:37:00,84.8,50.0,29.90,East,85,6.0,17.0,30,0.00,,,0.00,weatherlink.com 1.10,2013-09-04 17:37:00,
2013-09-04 12:53:00,85.7,50.0,29.90,ESE,115,3.0,23.0,29,0.00,,,0.00,weatherlink.com 1.10,2013-09-04 17:53:00,
2013-09-04 13:08:00,85.9,49.0,29.90,ESE,116,8.0,17.0,28,0.00,,,0.00,weatherlink.com 1.10,2013-09-04 18:08:00,
2013-09-04 13:23:00,86.3,50.0,29.89,East,98,3.0,15.0,29,0.00,,,0.00,weatherlink.com 1.10,2013-09-04 18:23:00,
2013-09-04 13:38:00,86.8,50.0,29.88,ESE,107,12.0,21.0,28,0.00,,,0.00,weatherlink.com 1.10,2013-09-04 18:38:00,
2013-09-04 13:53:00,87.0,50.0,29.88,East,99,7.0,15.0,28,0.00,,,0.00,weatherlink.com 1.10,2013-09-04 18:53:00,
2013-09-04 14:08:00,87.7,51.0,29.87,SE,130,7.0,21.0,28,0.00,,,0.00,weatherlink.com 1.10,2013-09-04 19:08:00,
2013-09-04 14:23:00,87.2,51.0,29.86,East,101,8.0,17.0,29,0.00,,,0.00,weatherlink.com 1.10,2013-09-04 19:23:00,
2013-09-04 14:38:00,87.9,52.0,29.86,SE,136,4.0,17.0,29,0.00,,,0.00,weatherlink.com 1.10,2013-09-04 19:38:00,
2013-09-04 14:53:00,88.6,51.0,29.86,SE,137,6.0,17.0,27,0.00,,,0.00,weatherlink.com 1.10,2013-09-04 19:53:00,
2013-09-04 15:08:00,88.6,51.0,29.85,East,101,1.0,15.0,27,0.00,,,0.00,weatherlink.com 1.10,2013-09-04 20:08:00,
2013-09-04 15:23:00,89.5,50.0,29.85,ESE,103,7.0,17.0,26,0.00,,,0.00,weatherlink.com 1.10,2013-09-04 20:23:00,
2013-09-04 15:38:00,89.5,50.0,29.84,ESE,109,4.0,15.0,26,0.00,,,0.00,weatherlink.com 1.10,2013-09-04 20:38:00,
2013-09-04 15:53:00,89.1,51.0,29.83,SE,139,4.0,15.0,27,0.00,,,0.00,weatherlink.com 1.10,2013-09-04 20:53:00,
2013-09-04 16:08:00,87.7,52.0,29.83,ESE,117,10.0,16.0,29,0.00,,,0.00,weatherlink.com 1.10,2013-09-04 21:08:00,
2013-09-04 16:23:00,88.5,50.0,29.82,ESE,106,8.0,13.0,27,0.00,,,0.00,weatherlink.com 1.10,2013-09-04 21:23:00,
2013-09-04 16:38:00,88.2,51.0,29.82,ESE,111,2.0,13.0,28,0.00,,,0.00,weatherlink.com 1.10,2013-09-04 21:38:00,
2013-09-04 16:53:00,89.6,51.0,29.81,ESE,120,10.0,12.0,27,0.00,,,0.00,weatherlink.com 1.10,2013-09-04 21:53:00,
2013-09-04 17:08:00,89.4,50.0,29.80,SE,130,4.0,12.0,26,0.00,,,0.00,weatherlink.com 1.10,2013-09-04 22:08:00,
2013-09-04 17:23:00,87.3,48.0,29.81,ESE,117,4.0,13.0,26,0.00,,,0.00,weatherlink.com 1.10,2013-09-04 22:23:00,
2013-09-04 17:38:00,88.0,50.0,29.80,SE,142,2.0,14.0,27,0.00,,,0.00,weatherlink.com 1.10,2013-09-04 22:38:00,
2013-09-04 17:53:00,88.0,49.0,29.80,ESE,107,4.0,13.0,26,0.00,,,0.00,weatherlink.com 1.10,2013-09-04 22:53:00,
2013-09-04 18:08:00,88.8,49.0,29.80,ESE,112,11.0,13.0,25,0.00,,,0.00,weatherlink.com 1.10,2013-09-04 23:08:00,
2013-09-04 18:23:00,88.4,49.0,29.79,ESE,113,14.0,17.0,26,0.00,,,0.00,weatherlink.com 1.10,2013-09-04 23:23:00,
2013-09-04 18:38:00,87.7,50.0,29.79,SSE,149,3.0,14.0,27,0.00,,,0.00,weatherlink.com 1.10,2013-09-04 23:38:00,
2013-09-04 18:53:00,86.5,51.0,29.79,SE,144,5.0,11.0,29,0.00,,,0.00,weatherlink.com 1.10,2013-09-04 23:53:00,
2013-09-04 19:08:00,85.6,50.0,29.79,SSE,160,5.0,14.0,29,0.00,,,0.00,weatherlink.com 1.10,2013-09-05 00:08:00,
2013-09-04 19:23:00,85.6,51.0,29.79,ESE,103,9.0,15.0,30,0.00,,,0.00,weatherlink.com 1.10,2013-09-05 00:23:00,
2013-09-04 19:38:00,85.6,51.0,29.80,SE,144,6.0,16.0,30,0.00,,,0.00,weatherlink.com 1.10,2013-09-05 00:38:00,
2013-09-04 19:53:00,84.9,51.0,29.80,SE,142,3.0,15.0,31,0.00,,,0.00,weatherlink.com 1.10,2013-09-05 00:53:00,
2013-09-04 20:08:00,84.3,52.0,29.80,ESE,102,13.0,18.0,33,0.00,,,0.00,weatherlink.com 1.10,2013-09-05 01:08:00,
2013-09-04 20:23:00,82.3,54.0,29.81,ESE,108,9.0,20.0,38,0.00,,,0.00,weatherlink.com 1.10,2013-09-05 01:23:00,
2013-09-04 20:38:00,80.3,56.0,29.81,SE,125,7.0,23.0,43,0.00,,,0.00,weatherlink.com 1.10,2013-09-05 01:38:00,
2013-09-04 20:53:00,78.1,57.0,29.82,SE,133,10.0,24.0,48,0.00,,,0.00,weatherlink.com 1.10,2013-09-05 01:53:00,
2013-09-04 21:08:00,76.3,57.0,29.82,SE,140,10.0,23.0,51,0.00,,,0.00,weatherlink.com 1.10,2013-09-05 02:08:00,
2013-09-04 21:23:00,76.0,56.0,29.83,ESE,115,7.0,24.0,51,0.00,,,0.00,weatherlink.com 1.10,2013-09-05 02:23:00,
2013-09-04 21:38:00,75.6,57.0,29.83,ESE,113,12.0,19.0,53,0.00,,,0.00,weatherlink.com 1.10,2013-09-05 02:38:00,
2013-09-04 21:53:00,75.6,57.0,29.84,ESE,105,8.0,18.0,53,0.00,,,0.00,weatherlink.com 1.10,2013-09-05 02:53:00,
2013-09-04 22:08:00,75.7,57.0,29.85,ESE,105,9.0,17.0,53,0.00,,,0.00,weatherlink.com 1.10,2013-09-05 03:08:00,
2013-09-04 22:23:00,75.8,57.0,29.85,SE,129,5.0,13.0,53,0.00,,,0.00,weatherlink.com 1.10,2013-09-05 03:23:00,
2013-09-04 22:38:00,75.9,57.0,29.85,SSE,153,4.0,10.0,53,0.00,,,0.00,weatherlink.com 1.10,2013-09-05 03:38:00,
2013-09-04 22:53:00,75.3,58.0,29.85,ESE,116,2.0,10.0,55,0.00,,,0.00,weatherlink.com 1.10,2013-09-05 03:53:00,
2013-09-04 23:08:00,74.9,58.0,29.85,ESE,113,2.0,10.0,56,0.00,,,0.00,weatherlink.com 1.10,2013-09-05 04:08:00,
2013-09-04 23:23:00,74.2,57.0,29.86,ESE,120,1.0,4.0,56,0.00,,,0.00,weatherlink.com 1.10,2013-09-05 04:23:00,
2013-09-04 23:38:00,73.9,58.0,29.86,ESE,119,8.0,9.0,57,0.00,,,0.00,weatherlink.com 1.10,2013-09-05 04:38:00,
2013-09-04 23:53:00,73.7,57.0,29.87,ESE,105,4.0,7.0,57,0.00,,,0.00,weatherlink.com 1.10,2013-09-05 04:53:00,